sensor_id;sensor_type;location;lat;lon;timestamp;P1;durP1;ratioP1;P2;durP2;ratioP2
10122;SDS011;5101;49.038;8.710;2022-08-03T00:01:31;1.65;;;1.50;;
10122;SDS011;5101;49.038;8.710;2022-08-03T00:03:57;1.98;;;1.52;;
10122;SDS011;5101;49.038;8.710;2022-08-03T00:06:22;3.05;;;1.60;;
10122;SDS011;5101;49.038;8.710;2022-08-03T00:08:48;1.27;;;1.17;;
10122;SDS011;5101;49.038;8.710;2022-08-03T00:11:13;1.65;;;1.20;;
10122;SDS011;5101;49.038;8.710;2022-08-03T00:13:39;1.80;;;1.70;;
10122;SDS011;5101;49.038;8.710;2022-08-03T00:16:04;5.35;;;1.55;;
10122;SDS011;5101;49.038;8.710;2022-08-03T00:18:30;3.90;;;1.67;;
10122;SDS011;5101;49.038;8.710;2022-08-03T00:20:56;1.85;;;1.45;;
10122;SDS011;5101;49.038;8.710;2022-08-03T00:23:21;3.10;;;1.42;;
10122;SDS011;5101;49.038;8.710;2022-08-03T00:25:47;1.88;;;1.50;;
10122;SDS011;5101;49.038;8.710;2022-08-03T00:28:12;1.88;;;1.50;;
10122;SDS011;5101;49.038;8.710;2022-08-03T00:30:38;7.35;;;1.50;;
10122;SDS011;5101;49.038;8.710;2022-08-03T00:33:03;5.13;;;1.52;;
10122;SDS011;5101;49.038;8.710;2022-08-03T00:35:29;4.05;;;1.52;;
10122;SDS011;5101;49.038;8.710;2022-08-03T00:37:55;1.27;;;1.20;;
10122;SDS011;5101;49.038;8.710;2022-08-03T00:40:21;3.35;;;1.63;;
10122;SDS011;5101;49.038;8.710;2022-08-03T00:42:47;3.35;;;1.50;;
10122;SDS011;5101;49.038;8.710;2022-08-03T00:45:21;4.47;;;1.60;;
10122;SDS011;5101;49.038;8.710;2022-08-03T00:47:48;3.28;;;1.70;;
10122;SDS011;5101;49.038;8.710;2022-08-03T00:50:14;4.68;;;1.40;;
10122;SDS011;5101;49.038;8.710;2022-08-03T00:52:41;5.55;;;1.60;;
10122;SDS011;5101;49.038;8.710;2022-08-03T00:55:08;4.70;;;1.30;;
10122;SDS011;5101;49.038;8.710;2022-08-03T00:57:34;1.50;;;1.40;;
10122;SDS011;5101;49.038;8.710;2022-08-03T01:00:00;1.60;;;1.50;;
10122;SDS011;5101;49.038;8.710;2022-08-03T01:02:26;2.28;;;1.60;;
10122;SDS011;5101;49.038;8.710;2022-08-03T01:04:52;2.22;;;1.52;;
10122;SDS011;5101;49.038;8.710;2022-08-03T01:07:21;1.77;;;1.45;;
10122;SDS011;5101;49.038;8.710;2022-08-03T01:12:36;1.83;;;1.73;;
10122;SDS011;5101;49.038;8.710;2022-08-03T01:18:17;3.00;;;1.65;;
10122;SDS011;5101;49.038;8.710;2022-08-03T01:20:33;1.90;;;1.70;;
10122;SDS011;5101;49.038;8.710;2022-08-03T01:23:09;2.15;;;1.50;;
10122;SDS011;5101;49.038;8.710;2022-08-03T01:26:08;1.50;;;1.40;;
10122;SDS011;5101;49.038;8.710;2022-08-03T01:31:47;1.83;;;1.30;;
10122;SDS011;5101;49.038;8.710;2022-08-03T01:34:27;3.00;;;1.60;;
10122;SDS011;5101;49.038;8.710;2022-08-03T01:36:58;1.85;;;1.75;;
10122;SDS011;5101;49.038;8.710;2022-08-03T01:39:25;1.73;;;1.52;;
10122;SDS011;5101;49.038;8.710;2022-08-03T01:41:54;1.67;;;1.58;;
10122;SDS011;5101;49.038;8.710;2022-08-03T01:44:23;3.60;;;1.38;;
10122;SDS011;5101;49.038;8.710;2022-08-03T01:46:53;1.67;;;1.58;;
10122;SDS011;5101;49.038;8.710;2022-08-03T01:49:23;1.58;;;1.40;;
10122;SDS011;5101;49.038;8.710;2022-08-03T01:51:50;5.38;;;1.40;;
10122;SDS011;5101;49.038;8.710;2022-08-03T01:54:17;1.92;;;1.60;;
10122;SDS011;5101;49.038;8.710;2022-08-03T01:56:47;3.20;;;1.77;;
10122;SDS011;5101;49.038;8.710;2022-08-03T01:59:15;1.67;;;1.50;;
10122;SDS011;5101;49.038;8.710;2022-08-03T02:04:16;1.88;;;1.40;;
10122;SDS011;5101;49.038;8.710;2022-08-03T02:06:44;1.63;;;1.38;;
10122;SDS011;5101;49.038;8.710;2022-08-03T02:09:11;2.67;;;1.50;;
10122;SDS011;5101;49.038;8.710;2022-08-03T02:11:38;2.22;;;1.83;;
10122;SDS011;5101;49.038;8.710;2022-08-03T02:14:05;2.00;;;1.40;;
10122;SDS011;5101;49.038;8.710;2022-08-03T02:16:33;2.83;;;1.67;;
10122;SDS011;5101;49.038;8.710;2022-08-03T02:19:00;2.25;;;1.42;;
10122;SDS011;5101;49.038;8.710;2022-08-03T02:21:28;1.92;;;1.60;;
10122;SDS011;5101;49.038;8.710;2022-08-03T02:23:57;1.77;;;1.50;;
10122;SDS011;5101;49.038;8.710;2022-08-03T02:26:23;1.88;;;1.67;;
10122;SDS011;5101;49.038;8.710;2022-08-03T02:28:53;1.40;;;1.30;;
10122;SDS011;5101;49.038;8.710;2022-08-03T02:31:22;2.55;;;2.03;;
10122;SDS011;5101;49.038;8.710;2022-08-03T02:33:51;1.52;;;1.42;;
10122;SDS011;5101;49.038;8.710;2022-08-03T02:36:22;2.58;;;1.73;;
10122;SDS011;5101;49.038;8.710;2022-08-03T02:38:51;1.58;;;1.48;;
10122;SDS011;5101;49.038;8.710;2022-08-03T02:41:21;1.70;;;1.55;;
10122;SDS011;5101;49.038;8.710;2022-08-03T02:43:49;2.97;;;1.90;;
10122;SDS011;5101;49.038;8.710;2022-08-03T02:46:19;2.20;;;1.60;;
10122;SDS011;5101;49.038;8.710;2022-08-03T02:48:51;1.63;;;1.50;;
10122;SDS011;5101;49.038;8.710;2022-08-03T02:51:17;2.22;;;1.77;;
10122;SDS011;5101;49.038;8.710;2022-08-03T02:53:44;2.08;;;1.80;;
10122;SDS011;5101;49.038;8.710;2022-08-03T02:56:11;2.03;;;1.83;;
10122;SDS011;5101;49.038;8.710;2022-08-03T02:58:38;3.70;;;1.58;;
10122;SDS011;5101;49.038;8.710;2022-08-03T03:01:06;2.45;;;1.63;;
10122;SDS011;5101;49.038;8.710;2022-08-03T03:03:32;1.75;;;1.65;;
10122;SDS011;5101;49.038;8.710;2022-08-03T03:05:59;1.67;;;1.58;;
10122;SDS011;5101;49.038;8.710;2022-08-03T03:08:26;1.77;;;1.67;;
10122;SDS011;5101;49.038;8.710;2022-08-03T03:10:52;1.90;;;1.77;;
10122;SDS011;5101;49.038;8.710;2022-08-03T03:13:19;3.83;;;1.92;;
10122;SDS011;5101;49.038;8.710;2022-08-03T03:15:46;4.07;;;1.70;;
10122;SDS011;5101;49.038;8.710;2022-08-03T03:18:13;1.98;;;1.88;;
10122;SDS011;5101;49.038;8.710;2022-08-03T03:20:40;4.32;;;1.98;;
10122;SDS011;5101;49.038;8.710;2022-08-03T03:23:06;2.33;;;1.90;;
10122;SDS011;5101;49.038;8.710;2022-08-03T03:25:33;2.35;;;1.92;;
10122;SDS011;5101;49.038;8.710;2022-08-03T03:28:00;1.65;;;1.55;;
10122;SDS011;5101;49.038;8.710;2022-08-03T03:30:26;2.65;;;1.95;;
10122;SDS011;5101;49.038;8.710;2022-08-03T03:32:52;1.80;;;1.70;;
10122;SDS011;5101;49.038;8.710;2022-08-03T03:35:18;2.88;;;1.73;;
10122;SDS011;5101;49.038;8.710;2022-08-03T03:37:44;5.65;;;2.22;;
10122;SDS011;5101;49.038;8.710;2022-08-03T03:40:10;1.67;;;1.58;;
10122;SDS011;5101;49.038;8.710;2022-08-03T03:42:36;2.00;;;1.90;;
10122;SDS011;5101;49.038;8.710;2022-08-03T03:45:05;1.95;;;1.85;;
10122;SDS011;5101;49.038;8.710;2022-08-03T03:47:32;1.98;;;1.88;;
10122;SDS011;5101;49.038;8.710;2022-08-03T03:49:59;2.20;;;1.98;;
10122;SDS011;5101;49.038;8.710;2022-08-03T03:52:26;3.65;;;2.00;;
10122;SDS011;5101;49.038;8.710;2022-08-03T03:54:52;2.90;;;1.60;;
10122;SDS011;5101;49.038;8.710;2022-08-03T03:57:17;2.40;;;1.80;;
10122;SDS011;5101;49.038;8.710;2022-08-03T03:59:43;2.42;;;2.00;;
10122;SDS011;5101;49.038;8.710;2022-08-03T04:02:09;5.22;;;1.95;;
10122;SDS011;5101;49.038;8.710;2022-08-03T04:04:35;2.88;;;2.10;;
10122;SDS011;5101;49.038;8.710;2022-08-03T04:07:21;2.28;;;2.00;;
10122;SDS011;5101;49.038;8.710;2022-08-03T04:10:14;3.08;;;2.00;;
10122;SDS011;5101;49.038;8.710;2022-08-03T04:13:01;3.42;;;2.20;;
10122;SDS011;5101;49.038;8.710;2022-08-03T04:15:29;2.47;;;2.20;;
10122;SDS011;5101;49.038;8.710;2022-08-03T04:17:57;2.30;;;2.00;;
10122;SDS011;5101;49.038;8.710;2022-08-03T04:20:25;3.92;;;2.50;;
10122;SDS011;5101;49.038;8.710;2022-08-03T04:22:54;2.38;;;2.17;;
10122;SDS011;5101;49.038;8.710;2022-08-03T04:25:24;2.95;;;1.83;;
10122;SDS011;5101;49.038;8.710;2022-08-03T04:27:53;3.70;;;2.22;;
10122;SDS011;5101;49.038;8.710;2022-08-03T04:30:22;2.35;;;2.20;;
10122;SDS011;5101;49.038;8.710;2022-08-03T04:32:50;2.40;;;2.20;;
10122;SDS011;5101;49.038;8.710;2022-08-03T04:35:16;2.22;;;2.03;;
10122;SDS011;5101;49.038;8.710;2022-08-03T04:37:44;2.30;;;2.10;;
10122;SDS011;5101;49.038;8.710;2022-08-03T04:40:18;4.25;;;1.95;;
10122;SDS011;5101;49.038;8.710;2022-08-03T04:43:01;2.45;;;2.20;;
10122;SDS011;5101;49.038;8.710;2022-08-03T04:45:29;2.28;;;2.08;;
10122;SDS011;5101;49.038;8.710;2022-08-03T04:47:56;4.15;;;2.30;;
10122;SDS011;5101;49.038;8.710;2022-08-03T04:50:23;2.53;;;2.10;;
10122;SDS011;5101;49.038;8.710;2022-08-03T04:52:49;3.42;;;2.22;;
10122;SDS011;5101;49.038;8.710;2022-08-03T04:55:24;5.35;;;2.55;;
10122;SDS011;5101;49.038;8.710;2022-08-03T04:57:53;3.55;;;2.17;;
10122;SDS011;5101;49.038;8.710;2022-08-03T05:00:19;3.47;;;2.42;;
10122;SDS011;5101;49.038;8.710;2022-08-03T05:02:45;2.78;;;2.38;;
10122;SDS011;5101;49.038;8.710;2022-08-03T05:05:10;3.92;;;2.30;;
10122;SDS011;5101;49.038;8.710;2022-08-03T05:07:36;5.85;;;2.47;;
10122;SDS011;5101;49.038;8.710;2022-08-03T05:10:05;2.20;;;2.10;;
10122;SDS011;5101;49.038;8.710;2022-08-03T05:12:32;3.00;;;2.30;;
10122;SDS011;5101;49.038;8.710;2022-08-03T05:14:58;4.32;;;2.33;;
10122;SDS011;5101;49.038;8.710;2022-08-03T05:17:23;3.47;;;2.17;;
10122;SDS011;5101;49.038;8.710;2022-08-03T05:19:49;2.40;;;2.20;;
10122;SDS011;5101;49.038;8.710;2022-08-03T05:22:15;5.55;;;2.67;;
10122;SDS011;5101;49.038;8.710;2022-08-03T05:24:40;2.90;;;2.13;;
10122;SDS011;5101;49.038;8.710;2022-08-03T05:27:06;5.60;;;2.38;;
10122;SDS011;5101;49.038;8.710;2022-08-03T05:29:31;2.88;;;2.03;;
10122;SDS011;5101;49.038;8.710;2022-08-03T05:31:57;7.10;;;3.15;;
10122;SDS011;5101;49.038;8.710;2022-08-03T05:34:22;4.38;;;2.65;;
10122;SDS011;5101;49.038;8.710;2022-08-03T05:36:48;5.68;;;2.35;;
10122;SDS011;5101;49.038;8.710;2022-08-03T05:39:14;5.13;;;2.50;;
10122;SDS011;5101;49.038;8.710;2022-08-03T05:41:39;6.20;;;2.78;;
10122;SDS011;5101;49.038;8.710;2022-08-03T05:44:05;7.20;;;3.20;;
10122;SDS011;5101;49.038;8.710;2022-08-03T05:46:30;6.80;;;2.90;;
10122;SDS011;5101;49.038;8.710;2022-08-03T05:48:56;6.55;;;2.85;;
10122;SDS011;5101;49.038;8.710;2022-08-03T05:51:22;6.63;;;2.63;;
10122;SDS011;5101;49.038;8.710;2022-08-03T05:53:47;8.27;;;3.10;;
10122;SDS011;5101;49.038;8.710;2022-08-03T05:56:13;11.07;;;2.72;;
10122;SDS011;5101;49.038;8.710;2022-08-03T05:58:39;2.90;;;2.40;;
10122;SDS011;5101;49.038;8.710;2022-08-03T06:01:05;6.30;;;2.28;;
10122;SDS011;5101;49.038;8.710;2022-08-03T06:03:30;4.95;;;2.58;;
10122;SDS011;5101;49.038;8.710;2022-08-03T06:05:56;7.93;;;2.75;;
10122;SDS011;5101;49.038;8.710;2022-08-03T06:08:22;4.20;;;2.92;;
10122;SDS011;5101;49.038;8.710;2022-08-03T06:10:48;2.75;;;2.00;;
10122;SDS011;5101;49.038;8.710;2022-08-03T06:13:14;4.10;;;2.40;;
10122;SDS011;5101;49.038;8.710;2022-08-03T06:15:40;5.55;;;3.00;;
10122;SDS011;5101;49.038;8.710;2022-08-03T06:18:05;6.13;;;2.55;;
10122;SDS011;5101;49.038;8.710;2022-08-03T06:20:32;11.57;;;2.28;;
10122;SDS011;5101;49.038;8.710;2022-08-03T06:22:57;3.38;;;2.20;;
10122;SDS011;5101;49.038;8.710;2022-08-03T06:25:24;2.53;;;1.77;;
10122;SDS011;5101;49.038;8.710;2022-08-03T06:27:50;6.05;;;1.88;;
10122;SDS011;5101;49.038;8.710;2022-08-03T06:30:16;4.13;;;1.85;;
10122;SDS011;5101;49.038;8.710;2022-08-03T06:32:43;4.40;;;1.70;;
10122;SDS011;5101;49.038;8.710;2022-08-03T06:35:09;6.25;;;1.85;;
10122;SDS011;5101;49.038;8.710;2022-08-03T06:37:45;4.97;;;1.90;;
10122;SDS011;5101;49.038;8.710;2022-08-03T06:40:16;3.15;;;1.80;;
10122;SDS011;5101;49.038;8.710;2022-08-03T06:42:43;5.22;;;1.80;;
10122;SDS011;5101;49.038;8.710;2022-08-03T06:45:10;7.93;;;2.03;;
10122;SDS011;5101;49.038;8.710;2022-08-03T06:47:36;4.90;;;2.10;;
10122;SDS011;5101;49.038;8.710;2022-08-03T06:50:03;2.80;;;1.60;;
10122;SDS011;5101;49.038;8.710;2022-08-03T06:52:30;3.72;;;1.88;;
10122;SDS011;5101;49.038;8.710;2022-08-03T06:54:56;3.55;;;1.80;;
10122;SDS011;5101;49.038;8.710;2022-08-03T06:57:22;1.95;;;1.80;;
10122;SDS011;5101;49.038;8.710;2022-08-03T06:59:48;1.70;;;1.60;;
10122;SDS011;5101;49.038;8.710;2022-08-03T07:02:14;3.47;;;1.50;;
10122;SDS011;5101;49.038;8.710;2022-08-03T07:04:40;2.88;;;1.50;;
10122;SDS011;5101;49.038;8.710;2022-08-03T07:07:05;1.50;;;1.38;;
10122;SDS011;5101;49.038;8.710;2022-08-03T07:09:31;2.05;;;1.50;;
10122;SDS011;5101;49.038;8.710;2022-08-03T07:11:56;2.65;;;1.50;;
10122;SDS011;5101;49.038;8.710;2022-08-03T07:14:22;1.75;;;1.38;;
10122;SDS011;5101;49.038;8.710;2022-08-03T07:16:48;1.70;;;1.60;;
10122;SDS011;5101;49.038;8.710;2022-08-03T07:19:14;2.50;;;1.48;;
10122;SDS011;5101;49.038;8.710;2022-08-03T07:21:40;5.72;;;1.58;;
10122;SDS011;5101;49.038;8.710;2022-08-03T07:24:05;3.30;;;1.77;;
10122;SDS011;5101;49.038;8.710;2022-08-03T07:26:31;3.35;;;1.83;;
10122;SDS011;5101;49.038;8.710;2022-08-03T07:28:56;2.00;;;1.48;;
10122;SDS011;5101;49.038;8.710;2022-08-03T07:31:22;2.30;;;1.50;;
10122;SDS011;5101;49.038;8.710;2022-08-03T07:33:48;5.78;;;1.65;;
10122;SDS011;5101;49.038;8.710;2022-08-03T07:36:14;1.88;;;1.42;;
10122;SDS011;5101;49.038;8.710;2022-08-03T07:38:40;3.38;;;1.60;;
10122;SDS011;5101;49.038;8.710;2022-08-03T07:41:05;1.60;;;1.50;;
10122;SDS011;5101;49.038;8.710;2022-08-03T07:43:31;1.55;;;1.45;;
10122;SDS011;5101;49.038;8.710;2022-08-03T07:45:56;3.08;;;1.70;;
10122;SDS011;5101;49.038;8.710;2022-08-03T07:48:22;2.20;;;1.30;;
10122;SDS011;5101;49.038;8.710;2022-08-03T07:50:48;3.30;;;1.48;;
10122;SDS011;5101;49.038;8.710;2022-08-03T07:53:14;3.15;;;1.42;;
10122;SDS011;5101;49.038;8.710;2022-08-03T07:55:40;3.75;;;1.33;;
10122;SDS011;5101;49.038;8.710;2022-08-03T07:58:10;3.90;;;1.45;;
10122;SDS011;5101;49.038;8.710;2022-08-03T08:00:39;3.90;;;1.58;;
10122;SDS011;5101;49.038;8.710;2022-08-03T08:05:41;4.65;;;1.58;;
10122;SDS011;5101;49.038;8.710;2022-08-03T08:08:06;2.80;;;1.40;;
10122;SDS011;5101;49.038;8.710;2022-08-03T08:10:32;5.75;;;1.40;;
10122;SDS011;5101;49.038;8.710;2022-08-03T08:12:58;5.40;;;1.70;;
10122;SDS011;5101;49.038;8.710;2022-08-03T08:15:23;1.60;;;1.42;;
10122;SDS011;5101;49.038;8.710;2022-08-03T08:17:50;6.10;;;1.80;;
10122;SDS011;5101;49.038;8.710;2022-08-03T08:20:22;5.50;;;1.48;;
10122;SDS011;5101;49.038;8.710;2022-08-03T08:22:49;5.00;;;1.52;;
10122;SDS011;5101;49.038;8.710;2022-08-03T08:25:15;2.15;;;1.30;;
10122;SDS011;5101;49.038;8.710;2022-08-03T08:27:41;2.75;;;1.30;;
10122;SDS011;5101;49.038;8.710;2022-08-03T08:30:13;2.35;;;1.20;;
10122;SDS011;5101;49.038;8.710;2022-08-03T08:32:42;7.40;;;1.30;;
10122;SDS011;5101;49.038;8.710;2022-08-03T08:35:09;4.13;;;1.00;;
10122;SDS011;5101;49.038;8.710;2022-08-03T08:37:35;1.85;;;0.80;;
10122;SDS011;5101;49.038;8.710;2022-08-03T08:40:02;1.08;;;0.80;;
10122;SDS011;5101;49.038;8.710;2022-08-03T08:42:29;3.70;;;0.98;;
10122;SDS011;5101;49.038;8.710;2022-08-03T08:44:56;1.35;;;1.17;;
10122;SDS011;5101;49.038;8.710;2022-08-03T08:47:25;3.17;;;0.95;;
10122;SDS011;5101;49.038;8.710;2022-08-03T08:49:54;1.17;;;1.00;;
10122;SDS011;5101;49.038;8.710;2022-08-03T08:52:22;0.95;;;0.95;;
10122;SDS011;5101;49.038;8.710;2022-08-03T08:54:49;1.92;;;0.70;;
10122;SDS011;5101;49.038;8.710;2022-08-03T08:57:34;1.73;;;0.88;;
10122;SDS011;5101;49.038;8.710;2022-08-03T09:00:06;0.90;;;0.70;;
10122;SDS011;5101;49.038;8.710;2022-08-03T09:02:34;2.92;;;0.75;;
10122;SDS011;5101;49.038;8.710;2022-08-03T09:05:00;0.80;;;0.80;;
10122;SDS011;5101;49.038;8.710;2022-08-03T09:07:26;1.70;;;0.90;;
10122;SDS011;5101;49.038;8.710;2022-08-03T09:09:52;0.80;;;0.80;;
10122;SDS011;5101;49.038;8.710;2022-08-03T09:12:18;2.00;;;0.73;;
10122;SDS011;5101;49.038;8.710;2022-08-03T09:14:44;2.83;;;0.77;;
10122;SDS011;5101;49.038;8.710;2022-08-03T09:17:10;1.15;;;0.82;;
10122;SDS011;5101;49.038;8.710;2022-08-03T09:19:35;0.98;;;0.80;;
10122;SDS011;5101;49.038;8.710;2022-08-03T09:24:37;2.05;;;0.80;;
10122;SDS011;5101;49.038;8.710;2022-08-03T09:27:17;6.03;;;1.25;;
10122;SDS011;5101;49.038;8.710;2022-08-03T09:29:46;3.20;;;1.00;;
10122;SDS011;5101;49.038;8.710;2022-08-03T09:32:13;2.15;;;0.90;;
10122;SDS011;5101;49.038;8.710;2022-08-03T09:34:39;1.17;;;1.05;;
10122;SDS011;5101;49.038;8.710;2022-08-03T09:37:11;1.63;;;0.90;;
10122;SDS011;5101;49.038;8.710;2022-08-03T09:39:39;2.20;;;1.10;;
10122;SDS011;5101;49.038;8.710;2022-08-03T09:44:35;2.30;;;0.90;;
10122;SDS011;5101;49.038;8.710;2022-08-03T09:47:08;3.85;;;1.20;;
10122;SDS011;5101;49.038;8.710;2022-08-03T09:49:35;4.47;;;1.10;;
10122;SDS011;5101;49.038;8.710;2022-08-03T09:52:11;10.07;;;1.65;;
10122;SDS011;5101;49.038;8.710;2022-08-03T09:54:39;5.50;;;0.90;;
10122;SDS011;5101;49.038;8.710;2022-08-03T09:57:05;2.50;;;1.00;;
10122;SDS011;5101;49.038;8.710;2022-08-03T09:59:31;2.58;;;1.00;;
10122;SDS011;5101;49.038;8.710;2022-08-03T10:01:58;2.47;;;1.00;;
10122;SDS011;5101;49.038;8.710;2022-08-03T10:04:24;5.15;;;1.10;;
10122;SDS011;5101;49.038;8.710;2022-08-03T10:09:59;2.45;;;1.10;;
10122;SDS011;5101;49.038;8.710;2022-08-03T10:12:26;4.18;;;1.08;;
10122;SDS011;5101;49.038;8.710;2022-08-03T10:14:53;1.40;;;1.02;;
10122;SDS011;5101;49.038;8.710;2022-08-03T10:17:19;3.67;;;0.80;;
10122;SDS011;5101;49.038;8.710;2022-08-03T10:19:46;1.30;;;1.20;;
10122;SDS011;5101;49.038;8.710;2022-08-03T10:22:17;5.50;;;0.98;;
10122;SDS011;5101;49.038;8.710;2022-08-03T10:24:55;1.88;;;1.10;;
10122;SDS011;5101;49.038;8.710;2022-08-03T10:27:24;1.55;;;1.02;;
10122;SDS011;5101;49.038;8.710;2022-08-03T10:29:52;10.25;;;4.00;;
10122;SDS011;5101;49.038;8.710;2022-08-03T10:32:21;1.17;;;1.05;;
10122;SDS011;5101;49.038;8.710;2022-08-03T10:34:49;2.63;;;1.02;;
10122;SDS011;5101;49.038;8.710;2022-08-03T10:37:16;0.98;;;0.90;;
10122;SDS011;5101;49.038;8.710;2022-08-03T10:39:43;0.95;;;0.95;;
10122;SDS011;5101;49.038;8.710;2022-08-03T10:42:18;2.15;;;1.00;;
10122;SDS011;5101;49.038;8.710;2022-08-03T10:44:47;2.65;;;0.98;;
10122;SDS011;5101;49.038;8.710;2022-08-03T10:47:16;4.55;;;0.95;;
10122;SDS011;5101;49.038;8.710;2022-08-03T10:49:43;4.05;;;1.25;;
10122;SDS011;5101;49.038;8.710;2022-08-03T10:52:10;1.30;;;0.85;;
10122;SDS011;5101;49.038;8.710;2022-08-03T10:54:37;1.10;;;1.00;;
10122;SDS011;5101;49.038;8.710;2022-08-03T10:57:41;1.67;;;0.90;;
10122;SDS011;5101;49.038;8.710;2022-08-03T11:00:10;1.08;;;0.90;;
10122;SDS011;5101;49.038;8.710;2022-08-03T11:05:38;1.23;;;1.13;;
10122;SDS011;5101;49.038;8.710;2022-08-03T11:08:17;3.85;;;1.10;;
10122;SDS011;5101;49.038;8.710;2022-08-03T11:10:46;2.05;;;1.05;;
10122;SDS011;5101;49.038;8.710;2022-08-03T11:13:17;1.27;;;0.90;;
10122;SDS011;5101;49.038;8.710;2022-08-03T11:15:45;1.13;;;0.90;;
10122;SDS011;5101;49.038;8.710;2022-08-03T11:18:13;0.90;;;0.90;;
10122;SDS011;5101;49.038;8.710;2022-08-03T11:20:46;1.20;;;1.00;;
10122;SDS011;5101;49.038;8.710;2022-08-03T11:23:12;2.10;;;1.00;;
10122;SDS011;5101;49.038;8.710;2022-08-03T11:28:32;2.22;;;1.00;;
10122;SDS011;5101;49.038;8.710;2022-08-03T11:31:18;2.08;;;0.70;;
10122;SDS011;5101;49.038;8.710;2022-08-03T11:34:05;0.88;;;0.88;;
10122;SDS011;5101;49.038;8.710;2022-08-03T11:39:41;1.63;;;1.00;;
10122;SDS011;5101;49.038;8.710;2022-08-03T11:44:48;1.17;;;0.80;;
10122;SDS011;5101;49.038;8.710;2022-08-03T11:47:21;2.30;;;0.90;;
10122;SDS011;5101;49.038;8.710;2022-08-03T11:49:54;1.40;;;1.02;;
10122;SDS011;5101;49.038;8.710;2022-08-03T11:52:23;1.98;;;1.20;;
10122;SDS011;5101;49.038;8.710;2022-08-03T11:54:52;1.45;;;1.00;;
10122;SDS011;5101;49.038;8.710;2022-08-03T11:57:28;2.42;;;1.00;;
10122;SDS011;5101;49.038;8.710;2022-08-03T11:59:55;1.92;;;1.13;;
10122;SDS011;5101;49.038;8.710;2022-08-03T12:02:20;1.17;;;0.80;;
10122;SDS011;5101;49.038;8.710;2022-08-03T12:04:52;0.90;;;0.90;;
10122;SDS011;5101;49.038;8.710;2022-08-03T12:07:18;1.42;;;1.08;;
10122;SDS011;5101;49.038;8.710;2022-08-03T12:10:04;2.78;;;1.10;;
10122;SDS011;5101;49.038;8.710;2022-08-03T12:12:31;2.42;;;1.00;;
10122;SDS011;5101;49.038;8.710;2022-08-03T12:14:57;2.15;;;1.05;;
10122;SDS011;5101;49.038;8.710;2022-08-03T12:17:23;1.17;;;0.98;;
10122;SDS011;5101;49.038;8.710;2022-08-03T12:20:00;3.40;;;0.75;;
10122;SDS011;5101;49.038;8.710;2022-08-03T12:22:32;0.90;;;0.90;;
10122;SDS011;5101;49.038;8.710;2022-08-03T12:24:59;1.10;;;1.00;;
10122;SDS011;5101;49.038;8.710;2022-08-03T12:27:25;0.88;;;0.80;;
10122;SDS011;5101;49.038;8.710;2022-08-03T12:29:55;1.15;;;0.88;;
10122;SDS011;5101;49.038;8.710;2022-08-03T12:32:22;3.00;;;0.90;;
10122;SDS011;5101;49.038;8.710;2022-08-03T12:34:49;1.27;;;0.75;;
10122;SDS011;5101;49.038;8.710;2022-08-03T12:37:18;2.05;;;0.90;;
10122;SDS011;5101;49.038;8.710;2022-08-03T12:39:48;3.33;;;0.85;;
10122;SDS011;5101;49.038;8.710;2022-08-03T12:42:18;1.25;;;0.80;;
10122;SDS011;5101;49.038;8.710;2022-08-03T12:44:44;1.65;;;0.73;;
10122;SDS011;5101;49.038;8.710;2022-08-03T12:47:10;1.45;;;0.90;;
10122;SDS011;5101;49.038;8.710;2022-08-03T12:49:49;0.85;;;0.82;;
10122;SDS011;5101;49.038;8.710;2022-08-03T12:52:18;0.70;;;0.70;;
10122;SDS011;5101;49.038;8.710;2022-08-03T12:54:57;3.28;;;1.02;;
10122;SDS011;5101;49.038;8.710;2022-08-03T12:57:24;1.80;;;0.77;;
10122;SDS011;5101;49.038;8.710;2022-08-03T13:00:13;1.30;;;0.80;;
10122;SDS011;5101;49.038;8.710;2022-08-03T13:02:44;2.17;;;0.90;;
10122;SDS011;5101;49.038;8.710;2022-08-03T13:05:10;2.58;;;0.80;;
10122;SDS011;5101;49.038;8.710;2022-08-03T13:07:43;2.55;;;0.90;;
10122;SDS011;5101;49.038;8.710;2022-08-03T13:10:10;1.10;;;1.00;;
10122;SDS011;5101;49.038;8.710;2022-08-03T13:12:48;2.33;;;0.95;;
10122;SDS011;5101;49.038;8.710;2022-08-03T13:15:14;1.45;;;0.98;;
10122;SDS011;5101;49.038;8.710;2022-08-03T13:17:40;3.75;;;0.80;;
10122;SDS011;5101;49.038;8.710;2022-08-03T13:20:06;2.13;;;0.80;;
10122;SDS011;5101;49.038;8.710;2022-08-03T13:22:32;1.50;;;0.80;;
10122;SDS011;5101;49.038;8.710;2022-08-03T13:24:58;1.02;;;0.82;;
10122;SDS011;5101;49.038;8.710;2022-08-03T13:27:26;1.35;;;0.88;;
10122;SDS011;5101;49.038;8.710;2022-08-03T13:29:52;2.85;;;1.00;;
10122;SDS011;5101;49.038;8.710;2022-08-03T13:32:19;3.80;;;0.88;;
10122;SDS011;5101;49.038;8.710;2022-08-03T13:34:45;0.90;;;0.85;;
10122;SDS011;5101;49.038;8.710;2022-08-03T13:37:11;1.13;;;0.85;;
10122;SDS011;5101;49.038;8.710;2022-08-03T13:39:37;1.00;;;0.90;;
10122;SDS011;5101;49.038;8.710;2022-08-03T13:42:03;0.70;;;0.70;;
10122;SDS011;5101;49.038;8.710;2022-08-03T13:44:29;1.17;;;1.00;;
10122;SDS011;5101;49.038;8.710;2022-08-03T13:46:55;1.30;;;1.05;;
10122;SDS011;5101;49.038;8.710;2022-08-03T13:49:21;1.35;;;1.05;;
10122;SDS011;5101;49.038;8.710;2022-08-03T13:51:47;2.63;;;0.82;;
10122;SDS011;5101;49.038;8.710;2022-08-03T13:54:13;1.20;;;1.10;;
10122;SDS011;5101;49.038;8.710;2022-08-03T13:56:38;3.13;;;0.98;;
10122;SDS011;5101;49.038;8.710;2022-08-03T13:59:04;1.88;;;0.77;;
10122;SDS011;5101;49.038;8.710;2022-08-03T14:01:30;3.42;;;0.88;;
10122;SDS011;5101;49.038;8.710;2022-08-03T14:06:32;0.70;;;0.70;;
10122;SDS011;5101;49.038;8.710;2022-08-03T14:08:57;0.98;;;0.88;;
10122;SDS011;5101;49.038;8.710;2022-08-03T14:11:23;3.22;;;0.68;;
10122;SDS011;5101;49.038;8.710;2022-08-03T14:13:48;4.88;;;0.80;;
10122;SDS011;5101;49.038;8.710;2022-08-03T14:16:14;2.35;;;0.73;;
10122;SDS011;5101;49.038;8.710;2022-08-03T14:18:40;1.85;;;0.93;;
10122;SDS011;5101;49.038;8.710;2022-08-03T14:21:06;2.50;;;1.00;;
10122;SDS011;5101;49.038;8.710;2022-08-03T14:23:32;3.55;;;0.93;;
10122;SDS011;5101;49.038;8.710;2022-08-03T14:26:07;3.17;;;1.00;;
10122;SDS011;5101;49.038;8.710;2022-08-03T14:28:33;1.55;;;0.80;;
10122;SDS011;5101;49.038;8.710;2022-08-03T14:30:59;2.50;;;0.90;;
10122;SDS011;5101;49.038;8.710;2022-08-03T14:33:26;0.75;;;0.75;;
10122;SDS011;5101;49.038;8.710;2022-08-03T14:35:52;3.40;;;1.10;;
10122;SDS011;5101;49.038;8.710;2022-08-03T14:38:18;0.75;;;0.70;;
10122;SDS011;5101;49.038;8.710;2022-08-03T14:40:44;1.30;;;0.95;;
10122;SDS011;5101;49.038;8.710;2022-08-03T14:43:10;1.85;;;0.70;;
10122;SDS011;5101;49.038;8.710;2022-08-03T14:45:36;2.13;;;0.90;;
10122;SDS011;5101;49.038;8.710;2022-08-03T14:48:03;2.20;;;0.90;;
10122;SDS011;5101;49.038;8.710;2022-08-03T14:50:28;2.60;;;1.00;;
10122;SDS011;5101;49.038;8.710;2022-08-03T14:52:54;1.90;;;1.02;;
10122;SDS011;5101;49.038;8.710;2022-08-03T14:55:20;1.30;;;0.93;;
10122;SDS011;5101;49.038;8.710;2022-08-03T14:57:45;1.00;;;1.00;;
10122;SDS011;5101;49.038;8.710;2022-08-03T15:00:11;2.05;;;0.90;;
10122;SDS011;5101;49.038;8.710;2022-08-03T15:02:37;2.15;;;0.80;;
10122;SDS011;5101;49.038;8.710;2022-08-03T15:05:03;3.40;;;0.80;;
10122;SDS011;5101;49.038;8.710;2022-08-03T15:07:29;0.82;;;0.82;;
10122;SDS011;5101;49.038;8.710;2022-08-03T15:09:54;1.40;;;0.88;;
10122;SDS011;5101;49.038;8.710;2022-08-03T15:12:20;0.88;;;0.88;;
10122;SDS011;5101;49.038;8.710;2022-08-03T15:14:45;1.45;;;0.80;;
10122;SDS011;5101;49.038;8.710;2022-08-03T15:17:11;0.77;;;0.77;;
10122;SDS011;5101;49.038;8.710;2022-08-03T15:19:36;0.90;;;0.80;;
10122;SDS011;5101;49.038;8.710;2022-08-03T15:22:03;1.90;;;1.00;;
10122;SDS011;5101;49.038;8.710;2022-08-03T15:24:29;1.73;;;0.93;;
10122;SDS011;5101;49.038;8.710;2022-08-03T15:26:54;0.82;;;0.82;;
10122;SDS011;5101;49.038;8.710;2022-08-03T15:29:20;1.63;;;0.75;;
10122;SDS011;5101;49.038;8.710;2022-08-03T15:31:45;1.77;;;0.90;;
10122;SDS011;5101;49.038;8.710;2022-08-03T15:34:11;3.25;;;0.80;;
10122;SDS011;5101;49.038;8.710;2022-08-03T15:36:36;1.52;;;0.95;;
10122;SDS011;5101;49.038;8.710;2022-08-03T15:39:03;0.80;;;0.80;;
10122;SDS011;5101;49.038;8.710;2022-08-03T15:41:29;1.98;;;0.82;;